Liuyang, China
Current Conditions -  °F | °C
As of 8:00 AM on Tuesday 23 Dec 2014 (Local Time) from ZGHA Reporting Station
Clear Clear  
Wind Chill: 36°   Ceiling: Unl
Heat Index: 36°   Visibility: 4mi
Dew Point: 28°   Wind: 2mph
Humidity: 75%   Direction: NA
Pressure: 30.24"   Gusts: NA
Location:  28.15°N, 113.63°E
Report Text: ZGHA 230000Z VRB01MPS 7000 NSC 02/M02 Q1024 NOSIG
Loading
Personal Weather Stations






























Interactive Weather Map New forecast layout! Learn more

10-Day Weather Forecast

Advertisements
Track Severe Weather on mobile